Time;durP1;ratioP1;P1;durP2;ratioP2;P2;SDS_P1;SDS_P2;PMS_P1;PMS_P2;Temp;Humidity;BMP_temperature;BMP_pressure;BME280_temperature;BME280_humidity;BME280_pressure;Samples;Min_cycle;Max_cycle;Signal;HPM_P1;HPM_P2
2021/01/22 00:01:18;;;;;;;2.73;2.03;;;6.20;99.90;;;;;;5097018;28;20175;-83
2021/01/22 00:03:44;;;;;;;3.03;2.47;;;5.90;99.90;;;;;;5097694;28;20174;-83
2021/01/22 00:06:11;;;;;;;3.33;2.50;;;5.90;99.90;;;;;;5105198;27;20171;-83
2021/01/22 00:08:37;;;;;;;3.20;2.37;;;5.90;99.90;;;;;;5101029;28;20184;-84
2021/01/22 00:11:03;;;;;;;3.60;2.20;;;5.90;99.90;;;;;;5087973;28;20183;-84
2021/01/22 00:13:28;;;;;;;3.13;2.23;;;5.80;99.90;;;;;;5086708;28;20175;-84
2021/01/22 00:15:54;;;;;;;2.83;2.00;;;5.80;99.90;;;;;;5086319;28;20163;-83
2021/01/22 00:18:20;;;;;;;4.40;2.40;;;5.80;99.90;;;;;;5103186;28;20183;-85
2021/01/22 00:20:45;;;;;;;3.53;2.40;;;5.90;99.90;;;;;;5085000;28;20168;-84
2021/01/22 00:23:11;;;;;;;4.00;2.13;;;5.80;99.90;;;;;;5085875;28;20195;-84
2021/01/22 00:25:36;;;;;;;3.30;2.20;;;5.80;99.90;;;;;;5087343;28;20198;-84
2021/01/22 00:28:02;;;;;;;3.63;2.40;;;5.80;99.90;;;;;;5085752;28;20186;-84
2021/01/22 00:30:28;;;;;;;3.80;2.60;;;5.70;99.90;;;;;;5093560;28;20576;-84
2021/01/22 00:32:53;;;;;;;2.97;1.70;;;5.60;99.90;;;;;;5086724;28;20191;-84
2021/01/22 00:35:19;;;;;;;3.27;2.10;;;5.60;99.90;;;;;;5085688;28;20175;-84
2021/01/22 00:37:45;;;;;;;3.10;2.30;;;5.50;99.90;;;;;;5103085;28;20194;-85
2021/01/22 00:40:11;;;;;;;3.30;2.30;;;5.60;99.90;;;;;;5104836;28;20253;-85
2021/01/22 00:42:37;;;;;;;4.10;2.50;;;5.50;99.90;;;;;;5085423;28;20289;-85
2021/01/22 00:45:05;;;;;;;3.60;2.50;;;5.60;99.90;;;;;;5084393;28;20640;-84
2021/01/22 00:47:30;;;;;;;3.43;2.20;;;5.60;99.90;;;;;;5084146;28;20250;-85
2021/01/22 00:49:56;;;;;;;2.90;2.20;;;5.60;99.90;;;;;;5085944;28;20269;-85
2021/01/22 00:52:21;;;;;;;3.60;2.23;;;5.60;99.90;;;;;;5085656;28;20619;-84
2021/01/22 00:54:47;;;;;;;3.63;2.60;;;5.60;99.90;;;;;;5084622;28;20170;-84
2021/01/22 00:57:13;;;;;;;3.20;2.00;;;5.70;99.90;;;;;;5086669;28;20174;-85
2021/01/22 00:59:38;;;;;;;4.03;2.90;;;5.80;99.90;;;;;;5084727;28;20558;-85
2021/01/22 01:02:07;;;;;;;6.53;3.00;;;5.80;99.90;;;;;;5103164;28;20175;-84
2021/01/22 01:04:33;;;;;;;5.07;2.90;;;5.90;99.90;;;;;;5086227;28;20173;-85
2021/01/22 01:06:58;;;;;;;4.43;3.10;;;6.00;99.90;;;;;;5084727;28;20260;-86
2021/01/22 01:09:24;;;;;;;4.63;3.30;;;6.10;99.90;;;;;;5084785;28;20302;-84
2021/01/22 01:11:49;;;;;;;3.43;2.60;;;6.10;99.90;;;;;;5101967;27;20190;-85
2021/01/22 01:14:15;;;;;;;3.50;2.60;;;6.10;99.90;;;;;;5115432;27;20659;-84
2021/01/22 01:16:41;;;;;;;3.70;2.43;;;6.10;99.90;;;;;;5114870;27;20541;-84
2021/01/22 01:19:07;;;;;;;2.50;1.87;;;6.10;99.90;;;;;;5115503;27;20174;-84
2021/01/22 01:21:32;;;;;;;4.47;2.43;;;6.20;99.90;;;;;;5116228;27;20173;-85
2021/01/22 01:23:58;;;;;;;3.27;1.87;;;6.20;99.90;;;;;;5116091;27;20197;-84
2021/01/22 01:26:24;;;;;;;3.40;2.67;;;6.30;99.90;;;;;;5116084;27;20211;-85
2021/01/22 01:28:50;;;;;;;3.60;2.50;;;6.30;99.90;;;;;;5115711;27;20230;-83
2021/01/22 01:31:15;;;;;;;4.50;2.50;;;6.40;99.90;;;;;;5115745;27;20200;-84
2021/01/22 01:33:41;;;;;;;4.00;2.63;;;6.50;99.90;;;;;;5115867;28;20177;-84
2021/01/22 01:36:07;;;;;;;4.07;2.83;;;6.40;99.90;;;;;;5115740;27;20170;-84
2021/01/22 01:38:33;;;;;;;3.77;2.90;;;6.20;99.90;;;;;;5115864;28;20604;-83
2021/01/22 01:40:58;;;;;;;5.80;2.67;;;6.30;99.90;;;;;;5115776;27;20235;-86
2021/01/22 01:43:24;;;;;;;3.40;2.10;;;6.30;99.90;;;;;;5115716;27;20216;-84
2021/01/22 01:45:49;;;;;;;4.83;2.00;;;6.20;99.90;;;;;;5115725;27;20178;-86
2021/01/22 01:48:16;;;;;;;3.40;1.90;;;6.00;99.90;;;;;;5115825;28;20644;-84
2021/01/22 01:50:43;;;;;;;2.43;1.47;;;6.10;99.90;;;;;;5115672;28;20181;-84
2021/01/22 01:53:09;;;;;;;2.40;1.50;;;5.90;99.90;;;;;;5115952;28;20209;-84
2021/01/22 01:55:36;;;;;;;3.83;2.00;;;6.10;99.90;;;;;;5115502;28;20171;-84
2021/01/22 01:58:03;;;;;;;1.90;1.43;;;6.00;99.90;;;;;;5133874;27;20167;-84
2021/01/22 02:00:30;;;;;;;2.40;1.40;;;5.90;99.90;;;;;;5118983;27;20224;-84
2021/01/22 02:02:55;;;;;;;3.30;1.50;;;5.80;99.90;;;;;;5119869;27;20185;-84
2021/01/22 02:05:21;;;;;;;2.50;1.40;;;5.90;99.90;;;;;;5119805;27;20173;-84
2021/01/22 02:07:47;;;;;;;2.73;1.47;;;5.80;99.90;;;;;;5119628;27;20181;-84
2021/01/22 02:10:13;;;;;;;2.77;1.50;;;5.60;99.90;;;;;;5119548;27;20226;-84
2021/01/22 02:12:40;;;;;;;3.60;1.70;;;5.60;99.90;;;;;;5119628;27;20704;-84
2021/01/22 02:15:12;;;;;;;2.50;1.70;;;5.60;99.90;;;;;;5119610;27;20174;-85
2021/01/22 02:17:42;;;;;;;4.10;1.67;;;5.60;99.90;;;;;;5119560;27;20249;-85
2021/01/22 02:20:23;;;;;;;4.60;1.80;;;5.50;99.90;;;;;;5119745;27;20265;-85
2021/01/22 02:22:53;;;;;;;2.73;1.80;;;5.50;99.90;;;;;;5119677;27;20189;-85
2021/01/22 02:25:27;;;;;;;2.47;1.60;;;5.70;99.90;;;;;;5119360;27;20182;-85
2021/01/22 02:27:53;;;;;;;3.67;1.90;;;5.70;99.90;;;;;;5119348;27;20617;-85
2021/01/22 02:30:19;;;;;;;4.37;1.93;;;5.70;99.90;;;;;;5120036;27;20181;-85
2021/01/22 02:32:46;;;;;;;3.53;1.70;;;5.70;99.90;;;;;;5119412;27;20682;-85
2021/01/22 02:35:13;;;;;;;2.67;1.67;;;5.60;99.90;;;;;;5137642;27;20170;-85
2021/01/22 02:37:41;;;;;;;3.07;2.20;;;5.50;99.90;;;;;;5118848;27;20234;-85
2021/01/22 02:40:09;;;;;;;1.90;1.60;;;5.50;99.90;;;;;;5118951;27;20189;-84
2021/01/22 02:42:40;;;;;;;2.90;1.80;;;5.50;99.90;;;;;;5118792;27;20184;-84
2021/01/22 02:45:11;;;;;;;3.53;1.87;;;5.40;99.90;;;;;;5119314;27;20209;-84
2021/01/22 02:47:37;;;;;;;3.23;2.07;;;5.50;99.90;;;;;;5118999;27;20181;-84
2021/01/22 02:50:06;;;;;;;3.77;1.80;;;5.50;99.90;;;;;;5119022;27;20166;-85
2021/01/22 02:52:32;;;;;;;3.60;2.10;;;5.40;99.90;;;;;;5118873;27;20297;-85
2021/01/22 02:54:58;;;;;;;3.50;1.83;;;5.40;99.90;;;;;;5118822;27;20253;-85
2021/01/22 02:57:40;;;;;;;3.00;1.83;;;5.40;99.90;;;;;;5118749;27;20227;-84
2021/01/22 03:00:17;;;;;;;4.50;2.40;;;5.50;99.90;;;;;;5118830;27;20177;-84
2021/01/22 03:02:51;;;;;;;5.37;2.50;;;5.50;99.90;;;;;;5137020;27;20200;-85
2021/01/22 03:05:20;;;;;;;4.03;2.30;;;5.50;99.90;;;;;;5118770;27;20170;-85
2021/01/22 03:07:52;;;;;;;3.00;2.03;;;5.50;99.90;;;;;;5118551;27;20186;-85
2021/01/22 03:10:20;;;;;;;3.27;2.10;;;5.40;99.90;;;;;;5117550;27;20552;-85
2021/01/22 03:12:51;;;;;;;4.13;2.83;;;5.40;99.90;;;;;;5118603;27;20218;-85
2021/01/22 03:15:18;;;;;;;4.57;2.70;;;5.40;99.90;;;;;;5118338;27;20170;-84
2021/01/22 03:17:43;;;;;;;5.43;3.43;;;5.40;99.90;;;;;;5118470;27;20174;-85
2021/01/22 03:20:12;;;;;;;7.57;3.57;;;5.40;99.90;;;;;;5118726;27;20218;-85
2021/01/22 03:22:38;;;;;;;8.07;3.60;;;5.40;99.90;;;;;;5118398;27;20281;-84
2021/01/22 03:25:04;;;;;;;5.47;3.70;;;5.50;99.90;;;;;;5118268;27;20231;-84
2021/01/22 03:27:30;;;;;;;7.73;3.63;;;5.50;99.90;;;;;;5118004;27;20182;-84
2021/01/22 03:29:55;;;;;;;7.10;4.10;;;5.50;99.90;;;;;;5118273;27;20173;-85
2021/01/22 03:32:21;;;;;;;7.23;4.30;;;5.50;99.90;;;;;;5117956;27;20238;-85
2021/01/22 03:34:46;;;;;;;14.60;4.50;;;5.50;99.90;;;;;;5118030;27;20166;-85
2021/01/22 03:37:12;;;;;;;8.27;4.40;;;5.40;99.90;;;;;;5117929;27;20186;-86
2021/01/22 03:39:38;;;;;;;7.63;4.40;;;5.70;99.90;;;;;;5117885;27;20215;-85
2021/01/22 03:42:04;;;;;;;7.43;4.50;;;5.40;99.90;;;;;;5117979;27;20268;-82
2021/01/22 03:44:30;;;;;;;10.10;4.47;;;5.40;99.90;;;;;;5118078;27;20178;-84
2021/01/22 03:46:56;;;;;;;9.17;4.90;;;5.40;99.90;;;;;;5118009;27;20532;-86
2021/01/22 03:49:22;;;;;;;7.60;4.23;;;5.40;99.90;;;;;;5117738;27;20199;-85
2021/01/22 03:51:47;;;;;;;8.73;4.37;;;5.40;99.90;;;;;;5117772;27;20190;-85
2021/01/22 03:54:13;;;;;;;9.53;4.07;;;5.40;99.90;;;;;;5118076;27;20185;-84
2021/01/22 03:56:39;;;;;;;8.03;4.10;;;5.40;99.90;;;;;;5117678;27;20269;-84
2021/01/22 03:59:05;;;;;;;8.93;4.90;;;5.40;99.90;;;;;;5117649;27;20209;-83
2021/01/22 04:01:31;;;;;;;7.60;4.30;;;5.30;99.90;;;;;;5117605;27;20265;-86
2021/01/22 04:03:57;;;;;;;7.33;4.00;;;5.30;99.90;;;;;;5117425;27;20213;-85
2021/01/22 04:06:23;;;;;;;6.97;4.47;;;5.50;99.90;;;;;;5136419;27;20166;-86
2021/01/22 04:08:49;;;;;;;6.47;3.60;;;5.50;99.90;;;;;;5119109;27;20688;-85
2021/01/22 04:11:15;;;;;;;6.17;3.83;;;5.50;99.90;;;;;;5123224;27;20537;-85
2021/01/22 04:13:41;;;;;;;7.40;3.80;;;5.40;99.90;;;;;;5117512;27;20701;-86
2021/01/22 04:16:07;;;;;;;8.37;3.80;;;5.50;99.90;;;;;;5117329;27;20261;-86
2021/01/22 04:18:32;;;;;;;8.83;4.00;;;5.50;99.90;;;;;;5117113;27;20170;-85
2021/01/22 04:20:58;;;;;;;7.70;3.57;;;5.70;99.90;;;;;;5117237;27;20174;-85
2021/01/22 04:23:24;;;;;;;7.50;3.83;;;5.70;99.90;;;;;;5116273;27;20194;-85
2021/01/22 04:25:49;;;;;;;6.03;3.57;;;5.60;99.90;;;;;;5117242;27;20170;-85
2021/01/22 04:28:15;;;;;;;6.40;3.53;;;5.60;99.90;;;;;;5116994;27;20174;-85
2021/01/22 04:30:41;;;;;;;6.97;3.80;;;5.60;99.90;;;;;;5117250;27;20174;-85
2021/01/22 04:33:07;;;;;;;6.10;3.77;;;5.50;99.90;;;;;;5117626;27;20237;-85
2021/01/22 04:35:33;;;;;;;7.17;3.93;;;5.60;99.90;;;;;;5116593;27;20575;-84
2021/01/22 04:37:59;;;;;;;7.03;4.17;;;5.70;99.90;;;;;;5117053;27;20561;-86
2021/01/22 04:40:26;;;;;;;5.73;3.77;;;5.70;99.90;;;;;;5116719;27;20174;-87
2021/01/22 04:42:52;;;;;;;6.37;3.60;;;5.90;99.90;;;;;;5116821;27;20174;-85
2021/01/22 04:45:18;;;;;;;7.20;4.17;;;6.00;99.90;;;;;;5116775;27;20167;-86
2021/01/22 04:47:43;;;;;;;6.37;3.77;;;5.80;99.90;;;;;;5117079;27;20182;-85
2021/01/22 04:50:11;;;;;;;8.13;4.43;;;5.90;99.90;;;;;;5116272;27;20269;-85
2021/01/22 04:52:37;;;;;;;6.30;3.60;;;6.00;99.90;;;;;;5116698;27;20194;-85
2021/01/22 04:55:06;;;;;;;5.13;3.80;;;6.00;99.90;;;;;;5116757;27;20273;-85
2021/01/22 04:57:37;;;;;;;5.37;3.63;;;6.00;99.90;;;;;;5116413;27;20209;-85
2021/01/22 05:00:05;;;;;;;6.60;3.60;;;6.00;99.90;;;;;;5116443;27;20397;-86
2021/01/22 05:02:31;;;;;;;6.80;3.77;;;6.00;99.90;;;;;;5116315;27;20223;-84
2021/01/22 05:04:58;;;;;;;5.17;3.30;;;5.90;99.90;;;;;;5116488;27;20173;-85
2021/01/22 05:07:24;;;;;;;6.73;3.73;;;5.90;99.90;;;;;;5116257;27;20197;-85
2021/01/22 05:09:51;;;;;;;6.73;4.03;;;5.90;99.90;;;;;;5116051;27;20213;-85
2021/01/22 05:12:16;;;;;;;6.53;3.67;;;5.90;99.90;;;;;;5116456;27;20243;-85
2021/01/22 05:14:42;;;;;;;7.07;3.73;;;5.90;99.90;;;;;;5134746;27;20170;-85
2021/01/22 05:17:10;;;;;;;6.87;3.87;;;5.90;99.90;;;;;;5116449;27;20169;-85
2021/01/22 05:19:40;;;;;;;5.57;3.70;;;6.00;99.90;;;;;;5115920;27;20166;-85
2021/01/22 05:22:11;;;;;;;6.27;4.03;;;6.10;99.90;;;;;;5116734;27;20192;-85
2021/01/22 05:24:38;;;;;;;9.23;3.80;;;6.00;99.90;;;;;;5122613;27;20186;-84
2021/01/22 05:27:04;;;;;;;6.87;3.63;;;6.00;99.90;;;;;;5120856;27;20170;-84
2021/01/22 05:29:30;;;;;;;7.07;4.47;;;6.00;99.90;;;;;;5116273;27;20508;-84
2021/01/22 05:31:56;;;;;;;4.37;3.40;;;6.00;99.90;;;;;;5116164;27;20200;-85
2021/01/22 05:34:23;;;;;;;8.50;3.63;;;6.10;99.90;;;;;;5133884;27;20170;-86
2021/01/22 05:36:49;;;;;;;7.23;3.70;;;6.10;99.90;;;;;;5115663;28;20169;-86
2021/01/22 05:39:21;;;;;;;5.83;4.17;;;6.10;99.90;;;;;;5134257;27;20182;-84
2021/01/22 05:41:54;;;;;;;6.07;3.73;;;6.10;99.90;;;;;;5116201;27;20265;-84
2021/01/22 05:44:24;;;;;;;8.10;3.77;;;6.10;99.90;;;;;;5115737;28;20189;-84
2021/01/22 05:47:19;;;;;;;9.53;5.37;;;6.00;99.90;;;;;;5115678;28;20166;-85
2021/01/22 05:49:58;;;;;;;6.40;3.93;;;6.00;99.90;;;;;;5094282;28;20205;-86
2021/01/22 05:52:25;;;;;;;7.77;4.40;;;6.10;99.90;;;;;;5115709;28;20202;-85
2021/01/22 05:54:51;;;;;;;7.20;4.07;;;5.90;99.90;;;;;;5115791;28;20170;-86
2021/01/22 05:57:18;;;;;;;5.33;3.20;;;5.90;99.90;;;;;;5115540;28;20630;-84
2021/01/22 05:59:44;;;;;;;5.93;4.10;;;5.90;99.90;;;;;;5116039;28;20198;-84
2021/01/22 06:02:29;;;;;;;7.80;3.50;;;5.90;99.90;;;;;;5116032;28;20178;-85
2021/01/22 06:05:18;;;;;;;5.83;3.30;;;5.90;99.90;;;;;;5115315;28;20261;-84
2021/01/22 06:07:46;;;;;;;8.77;3.80;;;5.90;99.90;;;;;;5115863;28;20186;-86
2021/01/22 06:10:22;;;;;;;3.83;3.10;;;6.00;99.90;;;;;;5115532;27;20193;-86
2021/01/22 06:12:50;;;;;;;5.07;3.70;;;5.90;99.90;;;;;;5115697;28;20217;-86
2021/01/22 06:15:18;;;;;;;7.60;3.63;;;5.90;99.90;;;;;;5115652;28;20167;-88
2021/01/22 06:17:52;;;;;;;5.70;3.60;;;5.80;99.90;;;;;;5117395;28;20185;-84
2021/01/22 06:20:23;;;;;;;6.60;3.77;;;5.90;99.90;;;;;;5117663;28;20626;-85
2021/01/22 06:23:11;;;;;;;6.80;3.80;;;5.90;99.90;;;;;;5115349;27;20186;-84
2021/01/22 06:25:42;;;;;;;8.20;3.77;;;6.00;99.90;;;;;;5115213;28;20266;-86
2021/01/22 06:28:12;;;;;;;12.10;3.77;;;6.30;99.90;;;;;;5115207;28;20174;-85
2021/01/22 06:30:40;;;;;;;7.37;3.83;;;6.10;99.90;;;;;;5115207;28;20245;-86
2021/01/22 06:33:06;;;;;;;9.83;3.87;;;6.00;99.90;;;;;;5114808;27;20241;-85
2021/01/22 06:35:34;;;;;;;7.13;3.53;;;5.90;99.90;;;;;;5115093;27;20545;-85
2021/01/22 06:38:01;;;;;;;7.60;4.17;;;5.80;99.90;;;;;;5115287;28;20214;-86
2021/01/22 06:40:27;;;;;;;5.63;3.30;;;5.80;99.90;;;;;;5115017;28;20159;-85
2021/01/22 06:42:54;;;;;;;6.57;3.23;;;5.80;99.90;;;;;;5107156;28;20200;-86
2021/01/22 06:45:22;;;;;;;4.77;3.30;;;5.80;99.90;;;;;;5095367;28;20224;-85
2021/01/22 06:48:08;;;;;;;5.77;3.67;;;5.90;99.90;;;;;;5116098;28;20163;-86
2021/01/22 06:50:35;;;;;;;8.17;3.80;;;6.00;99.90;;;;;;5097517;28;20715;-85
2021/01/22 06:53:30;;;;;;;6.93;3.50;;;5.90;99.90;;;;;;5116396;28;20749;-85
2021/01/22 06:56:02;;;;;;;6.90;3.13;;;5.90;99.90;;;;;;5094600;28;20190;-84
2021/01/22 06:58:29;;;;;;;7.93;3.90;;;5.90;99.90;;;;;;5092949;28;20178;-85
2021/01/22 07:00:59;;;;;;;5.57;4.03;;;5.90;99.90;;;;;;5117627;27;20162;-84
2021/01/22 07:03:37;;;;;;;5.50;3.60;;;5.90;99.90;;;;;;5111422;28;20194;-86
2021/01/22 07:06:08;;;;;;;6.47;3.60;;;6.00;99.90;;;;;;5088273;28;20258;-85
2021/01/22 07:08:52;;;;;;;5.40;3.50;;;6.00;99.90;;;;;;5087068;28;20179;-87
2021/01/22 07:11:18;;;;;;;4.53;3.33;;;5.90;99.90;;;;;;5098098;28;20216;-88
2021/01/22 07:13:47;;;;;;;6.20;3.40;;;5.80;99.90;;;;;;5116269;28;20167;-86
2021/01/22 07:16:25;;;;;;;7.87;3.80;;;5.80;99.90;;;;;;5098721;28;20651;-85
2021/01/22 07:18:59;;;;;;;7.30;3.43;;;5.70;99.90;;;;;;5098096;28;20175;-85
2021/01/22 07:21:32;;;;;;;7.70;3.60;;;5.70;99.90;;;;;;5097374;28;20174;-85
2021/01/22 07:24:04;;;;;;;5.37;3.37;;;5.70;99.90;;;;;;5098274;28;20262;-87
2021/01/22 07:26:40;;;;;;;7.93;3.77;;;5.70;99.90;;;;;;5097878;28;20182;-85
2021/01/22 07:29:24;;;;;;;7.27;3.70;;;5.70;99.90;;;;;;5101047;28;20606;-85
2021/01/22 07:31:56;;;;;;;8.43;3.73;;;5.70;99.90;;;;;;5097936;28;20301;-85
2021/01/22 07:34:44;;;;;;;7.97;4.20;;;5.80;99.90;;;;;;5097926;28;20216;-89
2021/01/22 07:37:14;;;;;;;7.90;3.47;;;5.60;99.90;;;;;;5097336;28;20175;-85
2021/01/22 07:39:41;;;;;;;7.40;3.43;;;5.70;99.90;;;;;;5097215;28;20177;-85
2021/01/22 07:42:08;;;;;;;6.47;3.70;;;5.70;99.90;;;;;;5097577;28;20618;-85
2021/01/22 07:44:35;;;;;;;7.17;3.43;;;5.80;99.90;;;;;;5097381;28;20182;-84
2021/01/22 07:47:01;;;;;;;5.07;3.10;;;5.80;99.90;;;;;;5100110;27;20196;-85
2021/01/22 07:49:27;;;;;;;5.97;3.40;;;5.90;99.90;;;;;;5115647;27;20585;-87
2021/01/22 07:51:52;;;;;;;7.20;2.97;;;5.80;99.90;;;;;;5112091;28;20210;-86
2021/01/22 07:54:18;;;;;;;7.07;3.40;;;5.80;99.90;;;;;;5098473;28;20175;-87
2021/01/22 07:56:44;;;;;;;9.00;3.50;;;5.80;99.90;;;;;;5111121;27;20261;-86
2021/01/22 07:59:13;;;;;;;7.27;3.33;;;6.10;99.90;;;;;;5117547;27;20174;-87
2021/01/22 08:01:40;;;;;;;5.07;2.77;;;6.00;99.90;;;;;;5117926;27;20167;-88
2021/01/22 08:04:06;;;;;;;6.23;3.17;;;6.00;99.90;;;;;;5114724;28;20170;-87
2021/01/22 08:06:49;;;;;;;7.10;2.80;;;6.00;99.90;;;;;;5080539;28;20174;-87
2021/01/22 08:09:19;;;;;;;7.33;3.70;;;5.90;99.90;;;;;;5097765;28;20190;-89
2021/01/22 08:11:52;;;;;;;4.90;2.80;;;5.80;99.90;;;;;;5097394;28;20222;-88
2021/01/22 08:14:29;;;;;;;6.43;3.90;;;5.90;99.90;;;;;;5096719;28;20187;-87
2021/01/22 08:16:54;;;;;;;8.47;3.57;;;5.90;99.90;;;;;;5097332;28;20170;-86
2021/01/22 08:19:24;;;;;;;8.13;3.20;;;5.90;99.90;;;;;;5098236;28;20545;-87
2021/01/22 08:21:50;;;;;;;6.63;3.10;;;5.90;99.90;;;;;;5106496;27;20165;-87
2021/01/22 08:24:16;;;;;;;7.33;2.93;;;5.90;99.90;;;;;;5116904;27;20239;-86
2021/01/22 08:26:42;;;;;;;7.73;3.27;;;6.00;99.90;;;;;;5127728;27;20674;-86
2021/01/22 08:29:09;;;;;;;7.10;3.37;;;6.00;99.90;;;;;;5107959;27;20206;-87
2021/01/22 08:31:38;;;;;;;5.37;3.07;;;6.00;99.90;;;;;;5117735;27;20245;-89
2021/01/22 08:34:05;;;;;;;7.00;3.10;;;6.10;99.90;;;;;;5116351;27;20273;-86
2021/01/22 08:36:30;;;;;;;4.93;2.80;;;6.10;99.90;;;;;;5116822;27;20257;-84
2021/01/22 08:38:58;;;;;;;9.40;3.13;;;6.10;99.90;;;;;;5117175;27;20277;-88
2021/01/22 08:41:27;;;;;;;8.10;3.10;;;6.10;99.90;;;;;;5116510;27;20174;-87
2021/01/22 08:43:54;;;;;;;13.27;4.50;;;6.30;99.90;;;;;;5116317;27;20178;-85
2021/01/22 08:46:24;;;;;;;7.73;3.00;;;6.20;99.90;;;;;;5116848;27;20174;-86
2021/01/22 08:48:50;;;;;;;6.60;3.13;;;6.10;99.90;;;;;;5104803;28;20287;-87
2021/01/22 08:51:27;;;;;;;8.23;3.70;;;6.30;99.90;;;;;;5086975;28;20182;-88
2021/01/22 08:53:53;;;;;;;8.33;2.93;;;6.10;99.90;;;;;;5115189;27;20206;-87
2021/01/22 08:56:21;;;;;;;9.47;3.90;;;6.20;99.90;;;;;;5115601;27;20349;-86
2021/01/22 08:59:06;;;;;;;7.13;3.07;;;6.20;99.90;;;;;;5095825;28;20255;-88
2021/01/22 09:01:58;;;;;;;5.50;3.30;;;6.20;99.90;;;;;;5097040;28;20175;-92
2021/01/22 09:04:34;;;;;;;6.47;3.13;;;6.20;99.90;;;;;;5096717;28;20502;-87
2021/01/22 09:07:04;;;;;;;7.20;3.80;;;6.10;99.90;;;;;;5096594;28;20183;-86
2021/01/22 09:09:48;;;;;;;8.13;3.70;;;6.10;99.90;;;;;;5077821;28;20290;-87
2021/01/22 09:12:16;;;;;;;8.80;3.73;;;5.90;99.90;;;;;;5096372;28;20682;-90
2021/01/22 09:14:52;;;;;;;6.63;3.27;;;5.90;99.90;;;;;;5097017;28;20209;-88
2021/01/22 09:17:34;;;;;;;7.93;3.43;;;6.00;99.90;;;;;;5102096;28;20179;-89
2021/01/22 09:20:06;;;;;;;6.10;3.20;;;6.30;99.90;;;;;;5075311;28;20225;-89
2021/01/22 09:22:32;;;;;;;7.87;3.50;;;6.20;99.90;;;;;;5075177;28;20195;-88
2021/01/22 09:25:04;;;;;;;8.30;3.00;;;6.10;99.90;;;;;;5075453;28;20167;-88
2021/01/22 09:27:29;;;;;;;5.03;2.87;;;6.10;99.90;;;;;;5093358;28;20209;-88
2021/01/22 09:29:55;;;;;;;7.43;2.93;;;6.20;99.90;;;;;;5087834;28;20159;-87
2021/01/22 09:32:21;;;;;;;6.87;3.37;;;6.30;99.90;;;;;;5095529;28;20211;-87
2021/01/22 09:34:47;;;;;;;10.07;3.63;;;6.60;99.90;;;;;;5113956;28;20169;-88
2021/01/22 09:37:12;;;;;;;8.13;3.23;;;6.50;99.90;;;;;;5096063;28;20262;-85
2021/01/22 09:39:38;;;;;;;6.47;3.20;;;6.20;99.90;;;;;;5095417;28;20171;-87
2021/01/22 09:42:04;;;;;;;7.40;3.33;;;6.20;99.90;;;;;;5095130;28;20169;-87
2021/01/22 09:44:31;;;;;;;8.17;3.60;;;6.40;99.90;;;;;;5095037;28;20247;-87
2021/01/22 09:46:57;;;;;;;6.67;3.23;;;6.40;99.90;;;;;;5095402;28;20171;-87
2021/01/22 09:49:23;;;;;;;10.77;3.23;;;6.40;99.90;;;;;;5113050;28;20324;-89
2021/01/22 09:51:49;;;;;;;9.77;2.97;;;6.40;99.90;;;;;;5116538;28;20285;-88
2021/01/22 09:54:16;;;;;;;10.47;3.13;;;6.30;99.90;;;;;;5106817;28;20182;-88
2021/01/22 09:56:42;;;;;;;13.87;3.53;;;6.40;99.90;;;;;;5114334;28;20190;-86
2021/01/22 09:59:08;;;;;;;8.60;3.77;;;6.60;99.90;;;;;;5116112;28;20178;-86
2021/01/22 10:01:35;;;;;;;10.27;3.50;;;6.60;99.90;;;;;;5097857;28;20166;-87
2021/01/22 10:04:04;;;;;;;8.17;3.90;;;6.70;99.90;;;;;;5095357;28;20177;-86
2021/01/22 10:06:30;;;;;;;12.83;4.07;;;6.70;99.90;;;;;;5095708;28;20540;-86
2021/01/22 10:08:56;;;;;;;10.50;3.93;;;6.80;99.90;;;;;;5122210;28;20198;-88
2021/01/22 10:11:22;;;;;;;9.93;4.30;;;6.70;99.90;;;;;;5133540;28;20166;-86
2021/01/22 10:13:53;;;;;;;7.67;3.53;;;6.80;99.90;;;;;;5115267;28;20181;-86
2021/01/22 10:16:23;;;;;;;10.13;3.80;;;6.90;99.90;;;;;;5116478;28;20188;-87
2021/01/22 10:18:50;;;;;;;14.77;4.70;;;7.00;99.90;;;;;;5115187;27;20166;-89
2021/01/22 10:21:17;;;;;;;9.30;3.40;;;7.10;99.90;;;;;;5118203;27;20171;-87
2021/01/22 10:23:44;;;;;;;8.07;3.40;;;7.10;99.90;;;;;;5119524;27;20550;-87
2021/01/22 10:26:10;;;;;;;10.10;3.53;;;7.10;99.90;;;;;;5109411;28;20171;-88
2021/01/22 10:28:36;;;;;;;10.63;3.50;;;7.00;99.90;;;;;;5098968;28;20651;-87
2021/01/22 10:31:02;;;;;;;10.27;3.77;;;7.00;99.90;;;;;;5098966;28;20534;-88
2021/01/22 10:33:34;;;;;;;5.83;2.90;;;7.00;99.90;;;;;;5098934;28;20210;-86
2021/01/22 10:36:01;;;;;;;6.13;2.90;;;6.90;99.90;;;;;;5101629;28;20171;-88
2021/01/22 10:38:27;;;;;;;8.10;3.50;;;7.10;99.90;;;;;;5101797;28;20185;-87
2021/01/22 10:40:56;;;;;;;7.20;3.67;;;7.20;99.90;;;;;;5098886;28;20638;-88
2021/01/22 10:43:23;;;;;;;6.40;3.20;;;7.10;99.90;;;;;;5098465;28;20189;-86
2021/01/22 10:45:50;;;;;;;7.33;2.90;;;7.10;99.90;;;;;;5099270;28;20620;-87
2021/01/22 10:48:17;;;;;;;6.47;3.20;;;7.20;99.90;;;;;;5101684;28;20171;-89
2021/01/22 10:50:45;;;;;;;4.70;2.60;;;7.30;99.90;;;;;;5099738;28;20167;-87
2021/01/22 10:53:11;;;;;;;10.07;3.87;;;7.30;99.90;;;;;;5104976;28;20228;-87
2021/01/22 10:55:36;;;;;;;5.97;3.47;;;7.30;99.90;;;;;;5101809;28;20208;-88
2021/01/22 10:58:02;;;;;;;7.83;3.43;;;7.20;99.90;;;;;;5097922;28;20179;-87
2021/01/22 11:00:28;;;;;;;7.10;3.17;;;7.30;99.90;;;;;;5109138;27;20533;-85
2021/01/22 11:02:53;;;;;;;8.30;3.80;;;7.50;99.90;;;;;;5115371;27;20261;-86
2021/01/22 11:05:19;;;;;;;6.17;2.80;;;7.50;99.90;;;;;;5098288;28;20650;-88
2021/01/22 11:07:45;;;;;;;5.70;3.10;;;7.40;99.90;;;;;;5098238;28;20696;-88
2021/01/22 11:10:11;;;;;;;8.70;3.23;;;7.40;99.90;;;;;;5097771;28;20187;-86
2021/01/22 11:12:36;;;;;;;6.77;2.87;;;7.30;99.90;;;;;;5116022;28;20198;-86
2021/01/22 11:15:04;;;;;;;10.87;2.90;;;7.50;99.90;;;;;;5116178;28;20174;-86
2021/01/22 11:17:29;;;;;;;6.00;2.70;;;7.50;99.90;;;;;;5097776;28;20299;-85
2021/01/22 11:19:56;;;;;;;7.37;2.77;;;7.70;99.90;;;;;;5098048;28;20167;-88
2021/01/22 11:22:22;;;;;;;8.80;3.20;;;7.70;99.90;;;;;;5097751;28;20231;-87
2021/01/22 11:24:47;;;;;;;7.37;3.23;;;7.90;99.90;;;;;;5097615;28;20272;-86
2021/01/22 11:27:13;;;;;;;5.67;2.80;;;8.10;99.90;;;;;;5098119;28;20241;-86
2021/01/22 11:29:39;;;;;;;5.77;2.50;;;8.20;99.90;;;;;;5102747;28;20243;-85
2021/01/22 11:32:05;;;;;;;6.63;2.70;;;8.20;99.90;;;;;;5098354;28;20294;-87
2021/01/22 11:34:34;;;;;;;7.07;2.60;;;8.10;99.90;;;;;;5097712;28;20232;-87
2021/01/22 11:37:00;;;;;;;6.93;2.87;;;8.10;99.90;;;;;;5096930;28;20175;-89
2021/01/22 11:39:26;;;;;;;6.50;2.50;;;8.00;99.90;;;;;;5097130;28;20285;-87
2021/01/22 11:41:52;;;;;;;7.07;3.03;;;8.00;99.90;;;;;;5097678;28;20563;-85
2021/01/22 11:44:17;;;;;;;7.30;2.63;;;8.20;99.90;;;;;;5115856;28;20279;-86
2021/01/22 11:46:43;;;;;;;6.00;2.90;;;8.20;99.90;;;;;;5097495;28;20167;-88
2021/01/22 11:49:09;;;;;;;6.50;2.77;;;8.30;99.90;;;;;;5099163;28;20179;-87
2021/01/22 11:51:36;;;;;;;7.47;2.97;;;8.50;99.90;;;;;;5097338;28;20167;-87
2021/01/22 11:54:04;;;;;;;8.23;2.80;;;8.50;99.90;;;;;;5098093;28;20223;-86
2021/01/22 11:56:30;;;;;;;5.40;2.40;;;8.40;99.90;;;;;;5099143;28;20552;-85
2021/01/22 11:58:55;;;;;;;8.23;2.50;;;8.50;99.90;;;;;;5098281;28;20171;-86
2021/01/22 12:01:21;;;;;;;9.53;2.67;;;8.40;99.90;;;;;;5098589;28;20183;-85
2021/01/22 12:03:47;;;;;;;5.90;2.33;;;8.30;99.90;;;;;;5096657;28;20181;-86
2021/01/22 12:06:12;;;;;;;9.97;3.30;;;8.30;99.90;;;;;;5089860;28;20270;-89
2021/01/22 12:08:38;;;;;;;10.23;2.77;;;8.10;99.90;;;;;;5076489;28;20205;-88
2021/01/22 12:11:03;;;;;;;6.80;2.23;;;8.20;99.90;;;;;;5076040;28;20179;-85
2021/01/22 12:13:29;;;;;;;7.57;2.90;;;8.00;99.90;;;;;;5076269;28;20683;-86
2021/01/22 12:15:55;;;;;;;5.70;3.00;;;8.20;99.90;;;;;;5076454;28;20168;-86
2021/01/22 12:18:21;;;;;;;5.77;2.37;;;8.30;99.90;;;;;;5094218;28;20183;-87
2021/01/22 12:20:46;;;;;;;8.83;2.50;;;8.50;99.90;;;;;;5076772;28;20169;-88
2021/01/22 12:23:12;;;;;;;7.33;2.43;;;8.50;99.90;;;;;;5095442;28;20203;-89
2021/01/22 12:25:40;;;;;;;5.70;2.30;;;8.40;99.90;;;;;;5076760;28;20263;-87
2021/01/22 12:28:06;;;;;;;5.30;2.30;;;8.50;99.90;;;;;;5076358;28;20357;-85
2021/01/22 12:30:33;;;;;;;6.53;2.50;;;8.50;99.90;;;;;;5103741;28;20220;-87
2021/01/22 12:32:58;;;;;;;5.30;2.53;;;8.50;99.90;;;;;;5095391;28;20214;-86
2021/01/22 12:35:24;;;;;;;10.73;2.47;;;8.50;99.90;;;;;;5076421;28;20172;-86
2021/01/22 12:37:49;;;;;;;6.27;2.13;;;8.60;99.90;;;;;;5076563;28;20340;-86
2021/01/22 12:40:16;;;;;;;4.37;2.57;;;8.70;99.90;;;;;;5095530;28;20202;-86
2021/01/22 12:42:41;;;;;;;8.73;2.37;;;8.70;99.90;;;;;;5078511;28;20661;-87
2021/01/22 12:45:07;;;;;;;9.23;2.40;;;8.80;99.90;;;;;;5078371;28;20199;-87
2021/01/22 12:47:33;;;;;;;6.87;2.30;;;8.90;99.90;;;;;;5078628;28;20693;-86
2021/01/22 12:49:59;;;;;;;8.83;2.63;;;9.00;99.90;;;;;;5075972;28;20164;-86
2021/01/22 12:52:24;;;;;;;5.83;2.30;;;9.00;99.90;;;;;;5098089;28;20254;-86
2021/01/22 12:54:50;;;;;;;7.13;2.53;;;9.00;99.90;;;;;;5085217;28;20216;-87
2021/01/22 12:57:15;;;;;;;5.43;1.70;;;8.90;99.90;;;;;;5096108;28;20838;-86
2021/01/22 12:59:41;;;;;;;6.90;2.27;;;8.90;99.90;;;;;;5083950;27;20177;-87